createdAt,value
2022-12-26T00:04:48.129Z,18.80
2022-12-26T00:25:31.262Z,21.80
2022-12-26T00:36:04.476Z,18.70
2022-12-26T00:46:32.074Z,19.90
2022-12-26T00:56:59.625Z,18.00
2022-12-26T01:07:27.219Z,19.00
2022-12-26T01:17:54.915Z,22.70
2022-12-26T01:28:23.117Z,19.30
2022-12-26T01:38:50.819Z,21.10
2022-12-26T01:49:22.380Z,22.40
2022-12-26T01:59:51.663Z,18.60
2022-12-26T02:10:23.418Z,20.80
2022-12-26T02:21:00.507Z,16.70
2022-12-26T02:31:35.096Z,24.90
2022-12-26T02:42:11.857Z,26.30
2022-12-26T02:53:17.378Z,22.60
2022-12-26T03:04:08.307Z,28.40
2022-12-26T03:14:42.838Z,29.40
2022-12-26T03:25:33.543Z,22.80
2022-12-26T03:36:01.778Z,24.50
2022-12-26T03:47:01.883Z,26.20
2022-12-26T03:57:56.082Z,30.50
2022-12-26T04:08:54.409Z,32.40
2022-12-26T04:19:33.515Z,29.00
2022-12-26T04:30:19.704Z,33.40
2022-12-26T04:41:08.368Z,26.50
2022-12-26T04:51:36.269Z,15.80
2022-12-26T05:02:26.813Z,16.40
2022-12-26T05:12:55.403Z,11.10
2022-12-26T05:23:42.682Z,8.70
2022-12-26T05:34:12.882Z,7.40
2022-12-26T05:44:40.652Z,8.10
2022-12-26T05:55:09.213Z,10.00
2022-12-26T06:05:36.902Z,12.20
2022-12-26T06:16:09.629Z,11.90
2022-12-26T06:26:37.923Z,14.40
2022-12-26T06:37:05.493Z,14.10
2022-12-26T06:47:33.120Z,12.50
2022-12-26T06:58:00.784Z,13.70
2022-12-26T07:08:28.401Z,13.10
2022-12-26T07:18:57.651Z,11.70
2022-12-26T07:29:25.563Z,11.20
2022-12-26T07:39:58.738Z,14.50
2022-12-26T07:50:28.029Z,12.30
2022-12-26T08:00:55.666Z,11.50
2022-12-26T08:21:51.568Z,9.90
2022-12-26T08:32:19.169Z,12.00
2022-12-26T08:43:11.818Z,11.20
2022-12-26T08:53:36.943Z,10.70
2022-12-26T09:04:07.873Z,10.70
2022-12-26T09:14:35.487Z,12.50
2022-12-26T09:25:03.123Z,11.00
2022-12-26T09:35:30.744Z,12.40
2022-12-26T09:46:07.497Z,11.90
2022-12-26T10:07:33.124Z,12.80
2022-12-26T10:18:09.079Z,12.10
2022-12-26T10:28:40.904Z,12.90
2022-12-26T10:39:18.839Z,11.70
2022-12-26T10:49:48.936Z,11.90
2022-12-26T11:00:22.564Z,12.90
2022-12-26T11:11:05.813Z,14.00
2022-12-26T11:21:34.883Z,12.10
2022-12-26T11:32:04.389Z,10.40
2022-12-26T11:42:32.102Z,9.20
2022-12-26T11:53:16.618Z,9.40
2022-12-26T12:03:49.756Z,9.10
2022-12-26T12:14:35.706Z,9.00
2022-12-26T12:25:28.627Z,8.20
2022-12-26T12:36:04.872Z,7.80
2022-12-26T12:46:41.475Z,8.60
2022-12-26T12:57:17.367Z,6.90
2022-12-26T13:07:49.508Z,7.40
2022-12-26T13:18:23.040Z,7.40
2022-12-26T13:29:00.494Z,7.50
2022-12-26T13:39:43.240Z,7.90
2022-12-26T13:50:54.930Z,8.70
2022-12-26T14:01:40.349Z,8.20
2022-12-26T14:12:23.077Z,9.60
2022-12-26T14:23:01.378Z,9.30
2022-12-26T14:33:34.250Z,12.60
2022-12-26T14:44:16.794Z,11.40
2022-12-26T14:54:51.063Z,9.80
2022-12-26T15:05:23.937Z,9.60
2022-12-26T15:16:08.992Z,9.40
2022-12-26T15:27:22.048Z,10.20
2022-12-26T15:38:12.851Z,10.70
2022-12-26T15:48:55.011Z,11.30
2022-12-26T15:59:54.857Z,9.60
2022-12-26T16:10:34.887Z,11.20
2022-12-26T16:21:23.576Z,14.00
2022-12-26T16:31:51.234Z,14.10
2022-12-26T16:42:32.153Z,12.20
2022-12-26T16:53:16.103Z,13.30
2022-12-26T17:03:52.759Z,15.30
2022-12-26T17:14:23.722Z,10.80
2022-12-26T17:24:52.950Z,9.00
2022-12-26T17:35:25.640Z,7.90
2022-12-26T17:45:53.574Z,7.40
2022-12-26T17:56:24.350Z,8.40
2022-12-26T18:06:51.982Z,8.00
2022-12-26T18:17:19.711Z,9.30
2022-12-26T18:27:47.977Z,11.10
2022-12-26T18:38:18.036Z,9.10
2022-12-26T18:48:45.723Z,9.70
2022-12-26T18:59:13.855Z,12.50
2022-12-26T19:09:45.484Z,12.70
2022-12-26T19:20:19.993Z,13.00
2022-12-26T19:30:47.680Z,12.30
2022-12-26T19:41:18.525Z,11.20
2022-12-26T19:51:47.284Z,12.30
2022-12-26T20:02:15.331Z,10.40
2022-12-26T20:23:09.203Z,11.30
2022-12-26T20:33:38.991Z,10.30
2022-12-26T20:44:06.847Z,10.80
2022-12-26T20:54:34.639Z,10.50
2022-12-26T21:05:02.147Z,9.40
2022-12-26T21:15:29.710Z,9.40
2022-12-26T21:26:00.391Z,9.00
2022-12-26T21:36:29.426Z,8.60
2022-12-26T21:46:56.931Z,10.20
2022-12-26T21:57:25.865Z,9.50
2022-12-26T22:07:57.687Z,10.00
2022-12-26T22:18:25.153Z,9.10
2022-12-26T22:28:53.380Z,10.10
2022-12-26T22:39:20.870Z,9.70
2022-12-26T22:49:48.529Z,11.20
2022-12-26T23:00:17.242Z,12.00
2022-12-26T23:10:46.255Z,11.20
2022-12-26T23:21:42.362Z,8.80
2022-12-26T23:32:11.589Z,9.00
2022-12-26T23:42:39.675Z,8.80
2022-12-26T23:53:07.817Z,8.70
